Time;durP1;ratioP1;P1;durP2;ratioP2;P2;SDS_P1;SDS_P2;PMS_P1;PMS_P2;Temp;Humidity;BMP_temperature;BMP_pressure;BME280_temperature;BME280_humidity;BME280_pressure;Samples;Min_cycle;Max_cycle;Signal;HPM_P1;HPM_P2
2022/07/28 00:01:52;;;;;;;5.23;2.03;;;;;;;13.71;72.91;101854.16;5080079;28;20044;-82
2022/07/28 00:04:17;;;;;;;5.30;1.80;;;;;;;13.74;73.62;101848.31;5079659;28;20068;-81
2022/07/28 00:06:43;;;;;;;5.27;1.90;;;;;;;13.71;73.46;101852.28;5080388;28;20399;-81
2022/07/28 00:09:08;;;;;;;5.77;2.00;;;;;;;13.68;73.57;101850.81;5061965;28;20039;-82
2022/07/28 00:11:33;;;;;;;4.93;2.20;;;;;;;13.63;73.33;101847.88;5080629;28;20043;-82
2022/07/28 00:13:59;;;;;;;3.63;1.90;;;;;;;13.64;73.08;101849.56;5080044;28;20036;-82
2022/07/28 00:16:24;;;;;;;5.37;1.93;;;;;;;13.60;73.75;101850.16;5080260;28;20476;-82
2022/07/28 00:18:49;;;;;;;3.83;1.80;;;;;;;13.62;73.55;101845.34;5061240;28;20036;-82
2022/07/28 00:21:15;;;;;;;4.67;2.00;;;;;;;13.57;73.19;101839.69;5080218;28;20502;-82
2022/07/28 00:23:40;;;;;;;6.93;1.90;;;;;;;13.55;73.77;101842.63;5080129;28;20055;-82
2022/07/28 00:26:10;;;;;;;3.83;1.80;;;;;;;13.58;74.21;101853.09;5079830;28;20383;-81
2022/07/28 00:28:36;;;;;;;5.13;1.97;;;;;;;13.52;73.87;101840.31;5080029;28;20047;-82
2022/07/28 00:31:03;;;;;;;3.80;1.93;;;;;;;13.50;74.24;101845.13;5077926;28;20024;-81
2022/07/28 00:33:28;;;;;;;6.90;2.00;;;;;;;13.55;74.00;101850.78;5079539;28;20116;-82
2022/07/28 00:35:53;;;;;;;6.57;1.90;;;;;;;13.51;74.11;101844.09;5079287;28;20047;-82
2022/07/28 00:38:19;;;;;;;5.73;2.00;;;;;;;13.53;73.23;101836.56;5079903;28;20040;-81
2022/07/28 00:43:28;;;;;;;6.10;2.10;;;;;;;13.48;74.05;101839.88;5072158;28;20059;-82
2022/07/28 00:45:53;;;;;;;4.27;2.00;;;;;;;13.37;75.03;101829.63;5079738;28;20494;-82
2022/07/28 00:48:18;;;;;;;4.03;1.70;;;;;;;13.34;74.61;101839.00;5079151;28;20039;-81
2022/07/28 00:50:44;;;;;;;7.10;2.00;;;;;;;13.31;74.46;101827.69;5072280;28;20032;-82
2022/07/28 00:53:09;;;;;;;5.50;1.90;;;;;;;13.20;75.20;101834.56;5078589;28;20667;-82
2022/07/28 00:55:37;;;;;;;5.90;2.03;;;;;;;13.14;75.85;101838.13;5078806;28;20032;-81
2022/07/28 00:58:02;;;;;;;4.90;2.10;;;;;;;13.09;75.80;101840.59;5079131;28;20047;-82
2022/07/28 01:00:28;;;;;;;6.20;2.00;;;;;;;13.05;76.18;101829.28;5079505;28;20040;-82
2022/07/28 01:02:53;;;;;;;5.97;2.10;;;;;;;13.06;74.92;101828.25;5078389;28;20103;-81
2022/07/28 01:05:19;;;;;;;3.87;1.90;;;;;;;13.07;74.79;101826.34;5079619;28;20039;-82
2022/07/28 01:08:02;;;;;;;4.23;1.87;;;;;;;13.05;74.80;101821.13;5079226;28;20051;-81
2022/07/28 01:10:44;;;;;;;6.30;2.30;;;;;;;13.04;75.13;101816.75;5079338;28;20028;-82
2022/07/28 01:13:21;;;;;;;4.20;2.03;;;;;;;12.97;74.90;101808.56;5078813;28;20077;-82
2022/07/28 01:15:58;;;;;;;3.90;2.07;;;;;;;12.94;75.14;101813.56;5078674;28;20032;-82
2022/07/28 01:18:28;;;;;;;4.47;2.20;;;;;;;12.91;75.47;101801.19;5078820;28;20032;-82
2022/07/28 01:21:09;;;;;;;2.87;1.97;;;;;;;12.91;75.71;101814.78;5079230;28;20055;-82
2022/07/28 01:24:02;;;;;;;5.87;2.10;;;;;;;12.87;75.44;101810.81;5078723;28;20119;-81
2022/07/28 01:26:40;;;;;;;4.80;2.20;;;;;;;12.81;75.27;101814.31;5079031;28;20114;-82
2022/07/28 01:29:34;;;;;;;6.80;2.30;;;;;;;12.71;76.41;101814.72;5078015;28;21142;-81
2022/07/28 01:32:07;;;;;;;5.30;1.92;;;;;;;12.68;75.87;101808.84;5078536;28;20484;-81
2022/07/28 01:34:40;;;;;;;6.03;2.40;;;;;;;12.72;75.43;101812.84;5078646;28;21290;-81
2022/07/28 01:37:16;;;;;;;4.67;2.10;;;;;;;12.70;75.13;101804.03;5078698;28;20084;-81
2022/07/28 01:39:43;;;;;;;5.43;2.30;;;;;;;12.69;75.72;101805.06;5078405;28;20031;-81
2022/07/28 01:42:12;;;;;;;6.33;2.37;;;;;;;12.71;75.39;101801.13;5059083;28;20047;-82
2022/07/28 01:44:44;;;;;;;5.87;2.57;;;;;;;12.66;74.87;101809.03;5079074;28;20032;-82
2022/07/28 01:47:10;;;;;;;3.97;2.03;;;;;;;12.59;75.08;101797.28;5078104;28;20788;-81
2022/07/28 01:49:37;;;;;;;5.17;2.47;;;;;;;12.56;75.54;101798.53;5078482;28;20479;-82
2022/07/28 01:52:07;;;;;;;3.77;2.03;;;;;;;12.59;74.74;101800.88;5077708;28;20043;-81
2022/07/28 01:54:35;;;;;;;5.13;2.30;;;;;;;12.65;74.56;101799.22;5059817;28;20034;-81
2022/07/28 01:57:02;;;;;;;8.43;2.30;;;;;;;12.60;74.43;101797.09;5077964;28;20672;-81
2022/07/28 01:59:29;;;;;;;3.97;2.00;;;;;;;12.66;73.90;101799.00;5078204;28;20119;-82
2022/07/28 02:01:56;;;;;;;3.80;2.40;;;;;;;12.64;74.75;101789.38;5078005;28;20507;-81
2022/07/28 02:04:24;;;;;;;4.80;2.00;;;;;;;12.60;74.34;101799.81;5077648;28;20032;-81
2022/07/28 02:06:52;;;;;;;6.93;2.50;;;;;;;12.65;73.86;101801.94;5078668;28;20035;-81
2022/07/28 02:09:21;;;;;;;3.60;2.10;;;;;;;12.63;74.21;101795.84;5077785;28;20067;-82
2022/07/28 02:11:51;;;;;;;4.47;2.10;;;;;;;12.65;73.69;101789.19;5078508;28;20403;-81
2022/07/28 02:14:21;;;;;;;4.87;2.30;;;;;;;12.57;73.83;101778.47;5078450;28;20032;-82
2022/07/28 02:17:00;;;;;;;5.63;2.23;;;;;;;12.53;73.90;101771.75;5059501;28;20043;-82
2022/07/28 02:19:28;;;;;;;5.73;2.23;;;;;;;12.57;73.72;101780.38;5078128;28;20082;-81
2022/07/28 02:21:55;;;;;;;4.73;1.97;;;;;;;12.49;73.45;101770.50;5077906;28;20115;-81
2022/07/28 02:24:27;;;;;;;3.80;2.13;;;;;;;12.50;72.96;101774.91;5078534;28;20066;-81
2022/07/28 02:26:58;;;;;;;5.37;1.97;;;;;;;12.59;73.08;101783.69;5078196;28;20063;-81
2022/07/28 02:29:25;;;;;;;5.97;2.00;;;;;;;12.61;73.52;101787.06;5077199;28;20116;-82
2022/07/28 02:32:11;;;;;;;6.17;2.00;;;;;;;12.60;73.75;101775.34;5078761;28;20127;-82
2022/07/28 02:34:39;;;;;;;5.97;2.00;;;;;;;12.52;73.63;101775.50;5078167;28;20101;-81
2022/07/28 02:37:08;;;;;;;3.70;2.10;;;;;;;12.48;73.14;101766.09;5058760;28;20048;-82
2022/07/28 02:39:44;;;;;;;6.50;2.20;;;;;;;12.54;72.93;101778.03;5077637;28;20028;-81
2022/07/28 02:42:17;;;;;;;7.93;2.30;;;;;;;12.51;73.56;101784.69;5077774;28;20145;-81
2022/07/28 02:44:47;;;;;;;6.77;2.37;;;;;;;12.50;72.98;101785.75;5077016;28;20032;-82
2022/07/28 02:47:18;;;;;;;7.30;2.20;;;;;;;12.44;73.39;101775.69;5077973;28;20032;-81
2022/07/28 02:49:45;;;;;;;7.10;2.10;;;;;;;12.49;73.84;101784.09;5077692;28;20040;-81
2022/07/28 02:52:12;;;;;;;4.67;2.10;;;;;;;12.50;73.17;101774.91;5077714;28;20035;-81
2022/07/28 02:54:39;;;;;;;5.60;2.20;;;;;;;12.47;72.79;101776.13;5077620;28;20035;-81
2022/07/28 02:57:06;;;;;;;3.80;1.93;;;;;;;12.50;72.67;101773.00;5078192;28;20040;-81
2022/07/28 02:59:34;;;;;;;4.10;1.80;;;;;;;12.45;73.47;101772.75;5079962;28;20039;-81
2022/07/28 03:01:59;;;;;;;5.20;2.33;;;;;;;12.47;73.53;101775.28;5081261;28;20212;-82
2022/07/28 03:07:10;;;;;;;6.43;2.07;;;;;;;12.46;72.41;101769.00;5082246;28;20527;-83
2022/07/28 03:09:42;;;;;;;5.23;2.20;;;;;;;12.44;73.09;101773.81;5081586;28;20149;-82
2022/07/28 03:12:09;;;;;;;3.70;1.97;;;;;;;12.47;72.73;101784.28;5081331;28;20066;-82
2022/07/28 03:14:35;;;;;;;4.20;2.10;;;;;;;12.41;73.95;101779.66;5079856;28;20240;-82
2022/07/28 03:17:00;;;;;;;6.53;2.10;;;;;;;12.38;73.56;101769.19;5081054;28;22030;-83
2022/07/28 03:19:26;;;;;;;7.63;2.53;;;;;;;12.41;73.11;101776.09;5081297;28;20044;-81
2022/07/28 03:21:52;;;;;;;5.07;2.00;;;;;;;12.31;73.53;101782.72;5081176;28;20526;-81
2022/07/28 03:24:22;;;;;;;5.03;2.20;;;;;;;12.36;73.46;101781.28;5081126;28;20031;-82
2022/07/28 03:26:56;;;;;;;5.87;2.37;;;;;;;12.38;74.21;101782.78;5081005;28;20340;-81
2022/07/28 03:29:24;;;;;;;4.00;2.20;;;;;;;12.26;74.31;101781.66;5080637;28;20588;-82
2022/07/28 03:31:55;;;;;;;7.83;2.40;;;;;;;12.25;75.28;101793.56;5080929;28;20039;-82
2022/07/28 03:34:21;;;;;;;4.47;2.20;;;;;;;12.18;75.08;101790.78;5062622;28;20388;-81
2022/07/28 03:36:52;;;;;;;4.47;2.20;;;;;;;12.12;75.29;101792.44;5081444;28;20123;-81
2022/07/28 03:39:22;;;;;;;6.63;2.30;;;;;;;12.08;75.68;101791.16;5061855;28;20067;-81
2022/07/28 03:41:48;;;;;;;8.20;2.40;;;;;;;12.09;75.47;101784.69;5081703;28;20035;-82
2022/07/28 03:44:14;;;;;;;5.37;2.30;;;;;;;12.09;75.84;101794.72;5059887;28;20132;-81
2022/07/28 03:46:43;;;;;;;9.67;2.20;;;;;;;12.02;75.90;101788.41;5081383;28;20472;-83
2022/07/28 03:49:09;;;;;;;6.70;2.30;;;;;;;11.99;75.92;101792.34;5081150;28;20077;-81
2022/07/28 03:51:34;;;;;;;4.83;2.23;;;;;;;11.95;76.13;101786.50;5080686;28;20478;-82
2022/07/28 03:54:00;;;;;;;3.87;2.23;;;;;;;11.91;76.26;101787.88;5079550;28;20396;-81
2022/07/28 03:56:25;;;;;;;5.43;2.50;;;;;;;11.82;76.51;101783.63;5077201;28;20309;-81
2022/07/28 03:58:50;;;;;;;5.40;2.20;;;;;;;11.88;77.03;101796.41;5079750;28;20126;-81
2022/07/28 04:01:16;;;;;;;4.53;2.50;;;;;;;11.82;76.79;101794.50;5080241;28;20127;-81
2022/07/28 04:03:41;;;;;;;6.83;2.50;;;;;;;11.77;76.84;101789.63;5079775;28;20490;-81
2022/07/28 04:06:06;;;;;;;4.27;2.60;;;;;;;11.78;77.37;101782.34;5081000;28;20043;-81
2022/07/28 04:08:32;;;;;;;5.60;2.33;;;;;;;11.76;77.35;101784.41;5080440;28;20044;-81
2022/07/28 04:10:57;;;;;;;7.47;2.50;;;;;;;11.78;77.14;101785.06;5079947;28;20500;-82
2022/07/28 04:13:22;;;;;;;5.37;2.40;;;;;;;11.71;77.68;101774.16;5060963;28;20047;-82
2022/07/28 04:15:48;;;;;;;7.30;2.80;;;;;;;11.73;78.79;101787.53;5079484;28;20020;-82
2022/07/28 04:18:13;;;;;;;6.43;2.80;;;;;;;11.55;77.83;101764.41;5061730;28;20486;-81
2022/07/28 04:20:38;;;;;;;6.00;2.80;;;;;;;11.65;78.37;101777.63;5061730;28;20096;-82
2022/07/28 04:23:04;;;;;;;8.00;2.67;;;;;;;11.69;79.01;101780.81;5080203;28;20393;-83
2022/07/28 04:25:29;;;;;;;6.77;2.57;;;;;;;11.54;78.78;101760.00;5080003;28;20637;-82
2022/07/28 04:27:55;;;;;;;7.63;2.80;;;;;;;11.59;78.97;101767.59;5080731;28;20113;-81
2022/07/28 04:30:23;;;;;;;3.93;2.60;;;;;;;11.61;79.36;101777.22;5079638;28;20032;-81
2022/07/28 04:32:50;;;;;;;8.17;2.80;;;;;;;11.61;79.59;101773.63;5056019;28;20117;-82
2022/07/28 04:35:16;;;;;;;9.23;2.87;;;;;;;11.68;79.77;101773.69;5078657;28;20074;-82
2022/07/28 04:37:43;;;;;;;9.43;2.70;;;;;;;11.68;79.76;101776.41;5079921;28;20371;-81
2022/07/28 04:40:11;;;;;;;7.77;2.90;;;;;;;11.71;79.66;101778.72;5079647;28;20047;-82
2022/07/28 04:42:38;;;;;;;9.13;3.10;;;;;;;11.75;79.78;101772.72;5079897;28;20102;-82
2022/07/28 04:45:05;;;;;;;7.40;3.10;;;;;;;11.78;79.56;101774.22;5079857;28;20478;-82
2022/07/28 04:47:30;;;;;;;7.20;2.80;;;;;;;11.87;80.19;101773.03;5079252;28;20051;-82
2022/07/28 04:49:56;;;;;;;7.07;2.40;;;;;;;11.95;79.82;101769.34;5079627;28;20036;-82
2022/07/28 04:52:22;;;;;;;5.73;2.87;;;;;;;11.92;79.68;101775.97;5079569;28;20469;-82
2022/07/28 04:54:48;;;;;;;5.30;2.70;;;;;;;11.94;80.28;101768.50;5079576;28;20495;-82
2022/07/28 04:57:14;;;;;;;5.43;2.70;;;;;;;11.93;80.11;101772.22;5078774;28;20036;-82
2022/07/28 04:59:39;;;;;;;4.67;2.60;;;;;;;12.02;79.02;101777.53;5078705;28;20035;-82
2022/07/28 05:02:05;;;;;;;9.90;3.17;;;;;;;12.02;79.27;101769.38;5079480;28;20046;-82
2022/07/28 05:04:31;;;;;;;7.17;2.70;;;;;;;12.09;79.05;101775.69;5078826;28;20036;-82
2022/07/28 05:06:56;;;;;;;6.60;3.07;;;;;;;12.07;78.86;101761.47;5078987;28;20062;-82
2022/07/28 05:09:21;;;;;;;6.43;2.90;;;;;;;12.17;79.05;101778.25;5079039;28;20089;-81
2022/07/28 05:11:47;;;;;;;6.00;2.70;;;;;;;12.20;78.69;101772.44;5078924;28;20104;-82
2022/07/28 05:14:12;;;;;;;5.87;2.50;;;;;;;12.24;78.48;101773.72;5078330;28;20040;-82
2022/07/28 05:16:38;;;;;;;6.67;2.50;;;;;;;12.28;77.97;101777.72;5079599;28;20032;-83
2022/07/28 05:19:03;;;;;;;5.30;2.50;;;;;;;12.32;77.69;101775.41;5078704;28;20063;-81
2022/07/28 05:21:29;;;;;;;6.77;2.50;;;;;;;12.35;78.03;101768.72;5078352;28;20037;-82
2022/07/28 05:23:54;;;;;;;9.50;2.57;;;;;;;12.44;78.07;101781.13;5078981;28;21347;-82
2022/07/28 05:26:20;;;;;;;8.67;2.60;;;;;;;12.45;77.95;101777.38;5078292;28;20040;-81
2022/07/28 05:28:45;;;;;;;7.23;2.57;;;;;;;12.52;77.38;101775.50;5078829;28;21447;-83
2022/07/28 05:31:11;;;;;;;4.57;2.40;;;;;;;12.58;76.98;101784.72;5077278;28;20028;-81
2022/07/28 05:33:36;;;;;;;7.53;2.70;;;;;;;12.59;78.19;101772.84;5078618;28;20043;-80
2022/07/28 05:36:03;;;;;;;6.87;2.80;;;;;;;12.70;77.32;101772.28;5082215;28;20028;-80
2022/07/28 05:38:29;;;;;;;7.13;2.43;;;;;;;12.74;75.74;101780.84;5070149;28;20138;-81
2022/07/28 05:40:55;;;;;;;6.83;2.60;;;;;;;12.80;76.08;101780.03;5080426;28;20483;-82
2022/07/28 05:43:21;;;;;;;5.40;2.70;;;;;;;12.89;77.32;101781.53;5078890;28;20036;-81
2022/07/28 05:45:46;;;;;;;9.70;2.63;;;;;;;12.99;76.96;101787.41;5078582;28;20180;-81
2022/07/28 05:48:12;;;;;;;7.13;2.60;;;;;;;13.10;75.67;101782.44;5078014;28;20079;-81
2022/07/28 05:50:38;;;;;;;8.77;2.57;;;;;;;13.21;75.57;101786.44;5078495;28;20494;-82
2022/07/28 05:53:04;;;;;;;5.83;2.40;;;;;;;13.23;73.29;101782.47;5078457;28;20036;-82
2022/07/28 05:55:30;;;;;;;7.13;2.40;;;;;;;13.33;74.56;101788.31;5079124;28;20511;-81
2022/07/28 05:57:57;;;;;;;10.23;2.70;;;;;;;13.42;73.64;101788.16;5079061;28;20085;-81
2022/07/28 06:00:23;;;;;;;6.83;2.40;;;;;;;13.54;74.20;101789.22;5078453;28;20152;-81
2022/07/28 06:02:49;;;;;;;8.93;2.50;;;;;;;13.66;73.81;101783.97;5078367;28;20028;-82
2022/07/28 06:05:16;;;;;;;7.67;2.40;;;;;;;13.79;73.42;101811.22;5078297;28;20028;-81
2022/07/28 06:07:42;;;;;;;4.90;2.33;;;;;;;13.81;72.37;101797.38;5078013;28;20474;-82
2022/07/28 06:10:09;;;;;;;6.33;2.30;;;;;;;13.87;72.31;101801.16;5078341;28;20067;-82
2022/07/28 06:12:43;;;;;;;8.33;2.43;;;;;;;14.05;72.35;101795.91;5078902;28;20375;-82
2022/07/28 06:15:21;;;;;;;7.00;2.25;;;;;;;14.29;72.47;101796.28;5077446;28;20353;-81
2022/07/28 06:17:47;;;;;;;6.23;2.00;;;;;;;14.33;71.33;101790.19;5077852;28;20162;-82
2022/07/28 06:20:13;;;;;;;6.73;2.37;;;;;;;14.46;71.41;101791.22;5077599;28;20555;-81
2022/07/28 06:22:43;;;;;;;6.80;2.17;;;;;;;14.51;70.37;101794.97;5078111;28;20113;-81
2022/07/28 06:25:22;;;;;;;7.93;2.00;;;;;;;14.51;68.98;101794.97;5078482;28;20059;-82
2022/07/28 06:27:50;;;;;;;6.07;2.30;;;;;;;14.55;68.66;101800.81;5078231;28;20044;-82
2022/07/28 06:30:16;;;;;;;7.23;2.10;;;;;;;14.58;69.46;101800.38;5060025;28;20362;-82
2022/07/28 06:32:42;;;;;;;5.00;2.17;;;;;;;14.63;68.49;101791.59;5079422;28;20047;-82
2022/07/28 06:35:08;;;;;;;7.83;2.20;;;;;;;14.68;69.41;101798.06;5082050;28;20472;-82
2022/07/28 06:37:34;;;;;;;7.07;2.00;;;;;;;14.76;67.97;101791.53;5082661;28;20032;-82
2022/07/28 06:39:59;;;;;;;7.87;1.80;;;;;;;14.89;67.65;101790.66;5082393;28;20814;-82
2022/07/28 06:42:25;;;;;;;7.43;2.00;;;;;;;14.95;66.87;101778.84;5063410;28;20104;-80
2022/07/28 06:44:51;;;;;;;5.10;2.10;;;;;;;14.92;67.22;101782.03;5074515;28;20032;-82
2022/07/28 06:47:17;;;;;;;4.83;1.80;;;;;;;15.07;68.71;101792.63;5081333;28;20044;-82
2022/07/28 06:49:42;;;;;;;8.90;1.97;;;;;;;14.97;66.90;101779.47;5082042;28;20051;-82
2022/07/28 06:52:08;;;;;;;6.33;2.10;;;;;;;14.83;66.75;101788.78;5081786;28;20044;-83
2022/07/28 06:54:33;;;;;;;7.23;2.10;;;;;;;14.99;67.85;101785.53;5081965;28;20035;-81
2022/07/28 06:56:58;;;;;;;5.53;2.10;;;;;;;15.06;66.90;101779.22;5081814;28;20043;-82
2022/07/28 06:59:24;;;;;;;8.80;2.07;;;;;;;15.15;67.40;101794.25;5081609;28;20044;-82
2022/07/28 07:01:50;;;;;;;9.90;2.03;;;;;;;15.34;64.99;101787.03;5063029;28;20036;-82
2022/07/28 07:04:15;;;;;;;5.33;1.90;;;;;;;15.44;66.30;101786.53;5081859;28;20816;-81
2022/07/28 07:06:42;;;;;;;8.77;2.33;;;;;;;15.40;65.37;101791.59;5081630;28;20035;-82
2022/07/28 07:09:07;;;;;;;5.23;1.90;;;;;;;15.47;66.54;101797.00;5081780;28;20060;-82
2022/07/28 07:11:32;;;;;;;4.97;1.77;;;;;;;15.55;66.19;101785.81;5081529;28;20115;-82
2022/07/28 07:13:58;;;;;;;8.63;1.83;;;;;;;15.76;66.41;101794.66;5081918;28;20498;-82
2022/07/28 07:16:23;;;;;;;5.83;2.00;;;;;;;15.89;65.85;101791.84;5081470;28;20059;-82
2022/07/28 07:18:51;;;;;;;4.67;1.70;;;;;;;16.10;66.00;101781.56;5081764;28;20166;-82
2022/07/28 07:21:17;;;;;;;6.87;2.07;;;;;;;16.07;63.94;101785.56;5081484;28;20503;-82
2022/07/28 07:23:43;;;;;;;4.77;1.80;;;;;;;16.35;64.50;101779.59;5081410;28;20036;-82
2022/07/28 07:26:08;;;;;;;4.00;1.73;;;;;;;16.43;63.49;101777.63;5081053;28;20040;-82
2022/07/28 07:28:33;;;;;;;9.47;1.93;;;;;;;16.44;61.20;101785.63;5081676;28;20085;-82
2022/07/28 07:30:59;;;;;;;5.67;2.00;;;;;;;16.55;63.01;101786.75;5081066;28;20151;-82
2022/07/28 07:33:24;;;;;;;4.80;1.70;;;;;;;16.77;63.18;101789.84;5080497;28;20532;-82
2022/07/28 07:35:50;;;;;;;4.87;1.70;;;;;;;16.99;62.73;101790.19;5081379;28;20044;-82
2022/07/28 07:38:15;;;;;;;6.03;1.83;;;;;;;17.13;62.20;101782.63;5080751;28;20055;-81
2022/07/28 07:40:40;;;;;;;6.03;1.80;;;;;;;17.37;62.12;101789.00;5062433;28;20040;-81
2022/07/28 07:43:06;;;;;;;3.10;1.60;;;;;;;17.28;57.98;101782.19;5080936;28;20036;-81
2022/07/28 07:45:33;;;;;;;6.20;2.03;;;;;;;17.18;59.15;101773.72;5080225;28;20499;-81
2022/07/28 07:47:59;;;;;;;6.30;1.93;;;;;;;16.88;59.09;101777.28;5080100;28;20130;-81
2022/07/28 07:50:24;;;;;;;7.07;1.40;;;;;;;16.84;58.20;101782.38;5081033;28;20044;-81
2022/07/28 07:52:49;;;;;;;4.40;1.60;;;;;;;17.07;58.46;101788.19;5081041;28;20494;-82
2022/07/28 07:55:18;;;;;;;7.20;1.57;;;;;;;17.26;57.99;101778.03;5081224;28;20170;-81
2022/07/28 07:57:44;;;;;;;5.47;1.97;;;;;;;17.26;56.83;101773.41;5080523;28;20431;-81
2022/07/28 08:00:10;;;;;;;5.13;1.50;;;;;;;17.38;57.34;101770.69;5080463;28;20360;-82
2022/07/28 08:02:40;;;;;;;6.77;1.70;;;;;;;17.52;58.83;101771.31;5063126;28;20040;-81
2022/07/28 08:05:07;;;;;;;6.27;1.53;;;;;;;17.50;54.72;101760.59;5080935;28;20149;-82
2022/07/28 08:07:32;;;;;;;5.63;1.57;;;;;;;17.77;56.37;101779.31;5080926;28;20059;-82
2022/07/28 08:09:58;;;;;;;5.43;1.60;;;;;;;17.84;54.55;101776.44;5080604;28;20036;-81
2022/07/28 08:12:23;;;;;;;4.30;1.60;;;;;;;17.96;53.81;101776.50;5045415;28;20063;-82
2022/07/28 08:14:49;;;;;;;5.60;1.60;;;;;;;17.97;53.65;101781.72;5080954;28;20055;-81
2022/07/28 08:17:14;;;;;;;5.20;1.50;;;;;;;18.07;53.75;101774.81;5080119;28;20036;-81
2022/07/28 08:19:39;;;;;;;5.07;1.57;;;;;;;18.28;56.20;101767.84;5080171;28;20050;-82
2022/07/28 08:22:05;;;;;;;5.67;1.70;;;;;;;18.09;55.10;101768.03;5061895;28;20176;-82
2022/07/28 08:24:30;;;;;;;3.83;1.57;;;;;;;17.98;54.75;101763.38;5080397;28;20044;-80
2022/07/28 08:26:56;;;;;;;5.40;1.60;;;;;;;17.95;55.03;101778.41;5080546;28;20077;-81
2022/07/28 08:29:21;;;;;;;5.20;1.47;;;;;;;18.23;52.94;101765.84;5061711;28;20044;-82
2022/07/28 08:31:47;;;;;;;5.07;1.43;;;;;;;18.43;54.44;101754.50;5070986;28;20036;-82
2022/07/28 08:34:12;;;;;;;5.97;1.60;;;;;;;18.64;51.88;101774.13;5079687;28;20040;-81
2022/07/28 08:36:38;;;;;;;4.38;1.52;;;;;;;18.91;53.84;101770.84;5079602;28;20032;-82
2022/07/28 08:39:04;;;;;;;6.63;1.88;;;;;;;18.98;52.24;101768.75;5081988;28;20114;-82
2022/07/28 08:41:37;;;;;;;4.03;1.58;;;;;;;18.79;52.82;101768.09;5070431;28;20032;-82
2022/07/28 08:44:04;;;;;;;5.15;1.48;;;;;;;18.91;53.82;101765.34;5079524;28;20047;-81
2022/07/28 08:46:37;;;;;;;2.85;1.38;;;;;;;19.28;51.55;101776.72;5055361;28;20425;-82
2022/07/28 08:49:08;;;;;;;6.82;1.52;;;;;;;19.56;51.87;101769.50;5079648;28;20028;-82
2022/07/28 08:51:33;;;;;;;4.47;1.70;;;;;;;19.47;50.70;101771.00;5055995;28;20145;-82
2022/07/28 08:54:01;;;;;;;5.13;1.60;;;;;;;20.00;51.97;101775.16;5080105;28;20100;-82
2022/07/28 08:56:27;;;;;;;4.72;1.42;;;;;;;19.46;50.95;101761.06;5078458;28;20071;-81
2022/07/28 08:58:53;;;;;;;3.45;1.55;;;;;;;19.61;50.52;101761.34;5078530;28;20110;-81
2022/07/28 09:01:18;;;;;;;5.53;1.48;;;;;;;19.76;50.46;101762.66;5079119;28;20454;-82
2022/07/28 09:03:44;;;;;;;3.30;1.35;;;;;;;20.19;50.49;101758.34;5079407;28;20046;-82
2022/07/28 09:06:10;;;;;;;4.10;1.45;;;;;;;21.03;48.86;101759.09;5059842;28;20332;-82
2022/07/28 09:08:35;;;;;;;5.43;1.55;;;;;;;21.07;47.25;101750.03;5079375;28;20048;-82
2022/07/28 09:11:01;;;;;;;3.65;1.48;;;;;;;20.70;47.42;101761.78;5079797;28;20127;-82
2022/07/28 09:13:26;;;;;;;4.68;1.40;;;;;;;20.84;47.98;101762.22;5044091;28;20032;-82
2022/07/28 09:15:52;;;;;;;2.60;1.27;;;;;;;21.18;46.95;101755.66;5079494;28;20040;-82
2022/07/28 09:18:18;;;;;;;2.50;1.60;;;;;;;21.24;46.71;101749.09;5078973;28;20039;-82
2022/07/28 09:20:44;;;;;;;3.03;1.40;;;;;;;21.33;47.63;101755.78;5079615;28;20032;-83
2022/07/28 09:23:10;;;;;;;3.28;1.45;;;;;;;21.94;46.79;101754.63;5080228;28;20035;-81
2022/07/28 09:25:36;;;;;;;4.22;1.40;;;;;;;22.14;44.60;101764.09;5079289;28;20147;-82
2022/07/28 09:28:08;;;;;;;5.88;1.80;;;;;;;22.06;44.31;101754.44;5079379;28;20040;-82
2022/07/28 09:30:36;;;;;;;4.88;1.50;;;;;;;22.52;44.26;101751.91;5079807;28;20039;-82
2022/07/28 09:33:25;;;;;;;3.92;1.48;;;;;;;22.61;43.51;101743.91;5079090;28;20380;-82
2022/07/28 09:35:52;;;;;;;4.40;1.58;;;;;;;22.74;43.34;101737.88;5079139;28;20044;-82
2022/07/28 09:38:19;;;;;;;4.65;1.52;;;;;;;21.97;44.03;101732.00;5079346;28;20089;-82
2022/07/28 09:41:05;;;;;;;5.35;1.60;;;;;;;22.06;45.83;101729.59;5079341;28;20039;-82
2022/07/28 09:43:39;;;;;;;5.15;1.50;;;;;;;22.50;45.72;101726.47;5079185;28;20077;-82
2022/07/28 09:46:24;;;;;;;5.72;1.77;;;;;;;22.63;45.19;101724.31;5079017;28;20036;-83
2022/07/28 09:48:49;;;;;;;3.20;1.60;;;;;;;22.38;43.55;101717.59;5078909;28;20032;-81
2022/07/28 09:51:23;;;;;;;4.05;1.45;;;;;;;22.74;43.58;101717.72;5079833;28;20034;-84
2022/07/28 09:53:50;;;;;;;2.70;1.33;;;;;;;22.95;42.49;101710.28;5065186;28;20028;-85
2022/07/28 09:56:15;;;;;;;2.50;1.35;;;;;;;23.21;43.58;101699.28;5063669;28;20043;-85
2022/07/28 09:58:53;;;;;;;5.88;1.90;;;;;;;22.95;41.59;101709.47;5082615;28;20737;-86
2022/07/28 10:01:19;;;;;;;3.42;1.13;;;;;;;23.08;42.59;101703.41;5082633;28;20042;-81
2022/07/28 10:03:54;;;;;;;4.97;1.75;;;;;;;23.08;42.14;101689.59;5104133;28;20547;-81
2022/07/28 10:06:25;;;;;;;4.65;1.50;;;;;;;23.27;41.52;101700.94;5064249;28;20131;-80
2022/07/28 10:08:51;;;;;;;4.18;1.33;;;;;;;23.93;41.81;101708.34;5078159;28;20504;-80
2022/07/28 10:11:20;;;;;;;3.90;1.38;;;;;;;23.52;40.45;101705.59;5078563;28;20040;-80
2022/07/28 10:14:03;;;;;;;5.28;1.23;;;;;;;23.99;42.25;101706.38;5078578;28;20919;-80
2022/07/28 10:16:41;;;;;;;1.88;1.33;;;;;;;23.74;40.04;101705.31;5078951;28;21789;-80
2022/07/28 10:19:06;;;;;;;5.28;1.73;;;;;;;23.71;39.79;101705.84;5078598;28;20042;-80
2022/07/28 10:21:38;;;;;;;3.45;1.38;;;;;;;24.08;39.83;101699.16;5082882;28;20028;-80
2022/07/28 10:24:05;;;;;;;3.55;1.58;;;;;;;23.89;39.92;101693.38;5065087;28;20497;-81
2022/07/28 10:26:36;;;;;;;4.25;1.33;;;;;;;24.21;37.89;101703.25;5083798;28;20028;-80
2022/07/28 10:29:06;;;;;;;3.15;1.48;;;;;;;24.39;38.51;101698.19;5084528;28;20046;-80
2022/07/28 10:31:50;;;;;;;3.95;1.20;;;;;;;24.54;40.66;101702.81;5082954;28;20035;-81
2022/07/28 10:34:35;;;;;;;3.15;1.33;;;;;;;24.94;37.18;101700.91;5082861;28;20397;-80
2022/07/28 10:37:08;;;;;;;5.47;1.50;;;;;;;24.72;37.43;101685.53;5083201;28;20036;-81
2022/07/28 10:39:50;;;;;;;4.35;1.40;;;;;;;25.17;38.61;101690.19;5084045;28;20028;-81
2022/07/28 10:42:16;;;;;;;5.95;1.48;;;;;;;25.15;37.40;101684.94;5084049;28;20032;-80
2022/07/28 10:44:44;;;;;;;4.60;1.50;;;;;;;25.10;36.95;101688.59;5055464;28;20047;-80
2022/07/28 10:47:10;;;;;;;3.30;1.45;;;;;;;25.17;38.69;101679.09;5081877;28;20036;-82
2022/07/28 10:49:37;;;;;;;4.18;1.63;;;;;;;24.65;36.42;101685.03;5082709;28;20111;-81
2022/07/28 10:52:05;;;;;;;4.95;1.30;;;;;;;24.37;39.23;101690.16;5083524;28;20081;-82
2022/07/28 10:54:34;;;;;;;4.10;1.15;;;;;;;24.99;38.67;101677.88;5081008;28;20031;-81
2022/07/28 10:57:02;;;;;;;3.10;1.50;;;;;;;24.89;37.15;101679.59;5082039;28;20043;-81
2022/07/28 10:59:33;;;;;;;3.45;1.33;;;;;;;25.18;37.30;101686.31;5083013;28;20024;-82
2022/07/28 11:01:59;;;;;;;4.65;1.27;;;;;;;25.49;35.98;101686.88;5066575;28;20044;-83
2022/07/28 11:04:39;;;;;;;3.53;1.40;;;;;;;25.57;36.53;101686.22;5063777;28;20076;-82
2022/07/28 11:07:09;;;;;;;4.55;1.70;;;;;;;25.52;37.19;101677.97;5088775;28;20079;-82
2022/07/28 11:09:35;;;;;;;6.50;1.55;;;;;;;25.20;36.18;101684.06;5078415;28;20281;-82
2022/07/28 11:12:01;;;;;;;4.40;1.40;;;;;;;24.94;37.42;101670.41;5078151;28;20036;-82
2022/07/28 11:14:34;;;;;;;2.15;1.20;;;;;;;25.18;38.03;101675.22;5078513;28;20031;-81
2022/07/28 11:16:59;;;;;;;3.60;1.70;;;;;;;24.74;37.11;101675.00;5053113;28;20043;-81
2022/07/28 11:19:28;;;;;;;2.83;1.42;;;;;;;24.94;36.44;101668.47;5079012;28;20274;-81
2022/07/28 11:22:18;;;;;;;4.03;1.63;;;;;;;24.84;38.16;101673.28;5082116;28;20636;-81
2022/07/28 11:24:55;;;;;;;5.28;1.50;;;;;;;24.64;38.04;101663.97;5081252;28;20023;-82
2022/07/28 11:27:39;;;;;;;5.88;1.55;;;;;;;25.43;37.71;101655.59;5081665;28;20067;-82
2022/07/28 11:30:05;;;;;;;4.80;1.55;;;;;;;25.45;36.50;101663.63;5080150;28;20064;-82
2022/07/28 11:32:49;;;;;;;6.63;1.45;;;;;;;25.51;36.05;101664.38;5080557;28;20579;-82
2022/07/28 11:35:14;;;;;;;;;;;;;;;25.95;37.21;101663.34;5081636;28;20151;-82